Time;durP1;ratioP1;P1;durP2;ratioP2;P2;SDS_P1;SDS_P2;PMS_P1;PMS_P2;Temp;Humidity;BMP_temperature;BMP_pressure;BME280_temperature;BME280_humidity;BME280_pressure;Samples;Min_cycle;Max_cycle;Signal;HPM_P1;HPM_P2
2021/05/28 00:00:59;;;;;;;6.80;4.30;;;10.60;99.90;;;;;;4935804;29;20482;-74
2021/05/28 00:03:27;;;;;;;6.53;4.20;;;10.60;99.90;;;;;;4935881;29;21007;-74
2021/05/28 00:05:54;;;;;;;6.67;4.53;;;10.50;99.90;;;;;;4937068;29;20440;-75
2021/05/28 00:08:22;;;;;;;8.03;4.50;;;10.50;99.90;;;;;;4937276;29;20478;-74
2021/05/28 00:10:50;;;;;;;5.77;3.50;;;10.40;99.90;;;;;;4936935;29;20495;-75
2021/05/28 00:13:18;;;;;;;6.37;3.73;;;10.40;99.90;;;;;;4936956;29;20450;-74
2021/05/28 00:15:45;;;;;;;6.30;3.97;;;10.40;99.90;;;;;;4936857;29;20815;-74
2021/05/28 00:18:13;;;;;;;6.50;3.93;;;10.40;99.90;;;;;;4935618;29;20890;-74
2021/05/28 00:20:41;;;;;;;6.13;4.00;;;10.30;99.90;;;;;;4937048;29;20460;-74
2021/05/28 00:23:09;;;;;;;7.47;3.83;;;10.30;99.90;;;;;;4936513;29;20456;-74
2021/05/28 00:25:36;;;;;;;5.13;4.10;;;10.30;99.90;;;;;;4936725;29;20439;-74
2021/05/28 00:28:05;;;;;;;6.57;4.20;;;10.30;99.90;;;;;;4936607;29;20471;-74
2021/05/28 00:30:33;;;;;;;6.43;3.50;;;10.30;99.90;;;;;;4936555;29;20841;-74
2021/05/28 00:33:01;;;;;;;5.13;3.93;;;10.20;99.90;;;;;;4936615;29;20446;-74
2021/05/28 00:35:28;;;;;;;6.10;3.93;;;10.20;99.90;;;;;;4936816;29;20484;-74
2021/05/28 00:37:56;;;;;;;7.10;4.00;;;10.20;99.90;;;;;;4936539;29;20605;-74
2021/05/28 00:40:24;;;;;;;4.90;3.87;;;10.10;99.90;;;;;;4936699;29;20555;-74
2021/05/28 00:42:51;;;;;;;6.17;3.87;;;10.10;99.90;;;;;;4935182;29;20495;-74
2021/05/28 00:45:20;;;;;;;7.20;3.90;;;10.10;99.90;;;;;;4936035;29;20447;-74
2021/05/28 00:47:47;;;;;;;5.93;3.87;;;10.10;99.90;;;;;;4935076;29;20462;-75
2021/05/28 00:50:15;;;;;;;5.00;3.63;;;10.00;99.90;;;;;;4935021;29;20483;-74
2021/05/28 00:52:43;;;;;;;5.80;3.77;;;10.00;99.90;;;;;;4936323;29;20484;-74
2021/05/28 00:55:12;;;;;;;7.60;3.80;;;10.00;99.90;;;;;;4934914;29;20462;-74
2021/05/28 00:57:40;;;;;;;5.30;3.83;;;10.00;99.90;;;;;;4934714;29;20476;-74
2021/05/28 01:00:09;;;;;;;6.03;4.10;;;9.90;99.90;;;;;;4936189;29;20456;-74
2021/05/28 01:02:37;;;;;;;8.27;3.80;;;9.90;99.90;;;;;;4936226;29;20491;-74
2021/05/28 01:05:06;;;;;;;5.57;3.80;;;9.90;99.90;;;;;;4936192;29;20440;-74
2021/05/28 01:07:34;;;;;;;8.13;4.27;;;9.90;99.90;;;;;;4934519;29;20464;-74
2021/05/28 01:10:02;;;;;;;8.47;4.90;;;9.90;99.90;;;;;;4934682;29;20497;-74
2021/05/28 01:12:29;;;;;;;7.67;4.40;;;9.90;99.90;;;;;;4936388;29;20450;-74
2021/05/28 01:14:58;;;;;;;10.57;4.33;;;9.80;99.90;;;;;;4934784;29;20503;-74
2021/05/28 01:17:27;;;;;;;8.17;4.83;;;9.80;99.90;;;;;;4934804;29;20546;-74
2021/05/28 01:19:55;;;;;;;6.83;4.30;;;9.80;99.90;;;;;;4934711;29;20464;-74
2021/05/28 01:22:24;;;;;;;7.67;4.40;;;9.80;99.90;;;;;;4935920;29;20499;-74
2021/05/28 01:24:52;;;;;;;7.20;4.43;;;9.70;99.90;;;;;;4934943;29;20463;-74
2021/05/28 01:27:20;;;;;;;9.03;4.07;;;9.70;99.90;;;;;;4936270;29;20447;-74
2021/05/28 01:29:48;;;;;;;10.13;5.57;;;9.70;99.90;;;;;;4934593;29;20495;-74
2021/05/28 01:32:16;;;;;;;7.33;4.33;;;9.70;99.90;;;;;;4934702;29;20483;-74
2021/05/28 01:34:44;;;;;;;8.80;5.40;;;9.60;99.90;;;;;;4937222;29;20889;-74
2021/05/28 01:37:11;;;;;;;9.07;5.83;;;9.60;99.90;;;;;;4934149;29;20538;-74
2021/05/28 01:39:44;;;;;;;6.73;5.20;;;9.60;99.90;;;;;;4934601;29;20553;-74
2021/05/28 01:42:12;;;;;;;8.60;4.90;;;9.60;99.90;;;;;;4936713;29;20464;-74
2021/05/28 01:44:40;;;;;;;5.90;5.10;;;9.60;99.90;;;;;;4934892;29;20960;-74
2021/05/28 01:47:07;;;;;;;9.00;5.80;;;9.50;99.90;;;;;;4935879;29;20443;-74
2021/05/28 01:49:39;;;;;;;8.63;5.50;;;9.50;99.90;;;;;;4935617;29;20488;-74
2021/05/28 01:52:07;;;;;;;10.33;6.63;;;9.50;99.90;;;;;;4934594;29;20787;-74
2021/05/28 01:54:35;;;;;;;9.33;6.67;;;9.50;99.90;;;;;;4934431;29;20463;-74
2021/05/28 01:57:05;;;;;;;12.40;6.90;;;9.50;99.90;;;;;;4935732;29;20530;-74
2021/05/28 01:59:32;;;;;;;12.43;6.63;;;9.50;99.90;;;;;;4934802;29;20467;-74
2021/05/28 02:02:00;;;;;;;11.03;7.20;;;9.40;99.90;;;;;;4935237;29;20491;-74
2021/05/28 02:04:28;;;;;;;11.00;8.43;;;9.40;99.90;;;;;;4934598;29;20448;-74
2021/05/28 02:06:56;;;;;;;14.00;9.82;;;9.40;99.90;;;;;;4935595;29;20444;-74
2021/05/28 02:09:24;;;;;;;13.20;9.60;;;9.50;99.90;;;;;;4939343;29;20231;-74
2021/05/28 02:11:51;;;;;;;12.83;9.00;;;9.50;99.90;;;;;;4937964;29;20466;-74
2021/05/28 02:14:20;;;;;;;11.90;9.33;;;9.50;99.90;;;;;;4939095;29;20444;-74
2021/05/28 02:16:49;;;;;;;15.93;12.15;;;9.50;99.90;;;;;;4936926;29;20481;-74
2021/05/28 02:19:17;;;;;;;13.53;10.63;;;9.60;99.90;;;;;;4939500;29;20216;-74
2021/05/28 02:21:45;;;;;;;15.40;11.07;;;9.60;99.90;;;;;;4940634;29;20491;-74
2021/05/28 02:24:15;;;;;;;15.13;10.30;;;9.60;99.90;;;;;;4919911;29;20456;-74
2021/05/28 02:26:45;;;;;;;14.10;11.47;;;9.60;99.90;;;;;;4938969;29;20486;-74
2021/05/28 02:29:13;;;;;;;15.93;12.23;;;9.60;99.90;;;;;;4938991;29;20507;-74
2021/05/28 02:31:42;;;;;;;19.07;13.90;;;9.50;99.90;;;;;;4937562;29;20829;-74
2021/05/28 02:34:10;;;;;;;17.10;13.57;;;9.50;99.90;;;;;;4938996;29;20531;-74
2021/05/28 02:36:37;;;;;;;16.77;14.87;;;9.50;99.90;;;;;;4938742;29;20518;-74
2021/05/28 02:39:06;;;;;;;16.20;14.47;;;9.50;99.90;;;;;;4938871;29;20527;-74
2021/05/28 02:41:35;;;;;;;19.53;14.73;;;9.50;99.90;;;;;;4937193;29;20530;-74
2021/05/28 02:44:04;;;;;;;20.10;14.40;;;9.50;99.90;;;;;;4937367;29;21094;-74
2021/05/28 02:46:33;;;;;;;22.10;16.37;;;9.50;99.90;;;;;;4938611;29;20963;-74
2021/05/28 02:49:03;;;;;;;18.30;15.50;;;9.50;99.90;;;;;;4938378;29;20566;-74
2021/05/28 02:51:31;;;;;;;23.50;15.90;;;9.50;99.90;;;;;;4939861;29;20875;-74
2021/05/28 02:54:07;;;;;;;19.33;15.30;;;9.50;99.90;;;;;;4942959;29;20889;-74
2021/05/28 02:56:38;;;;;;;18.53;15.63;;;9.50;99.90;;;;;;4939857;29;20455;-74
2021/05/28 02:59:07;;;;;;;20.20;15.47;;;9.50;99.90;;;;;;4938330;29;20798;-75
2021/05/28 03:01:35;;;;;;;17.67;14.60;;;9.50;99.90;;;;;;4939434;29;20478;-74
2021/05/28 03:04:04;;;;;;;22.60;16.93;;;9.50;99.90;;;;;;4938748;29;20539;-74
2021/05/28 03:06:34;;;;;;;20.40;16.20;;;9.50;99.90;;;;;;4938802;29;20522;-74
2021/05/28 03:09:02;;;;;;;20.70;15.17;;;9.50;99.90;;;;;;4939506;29;20467;-74
2021/05/28 03:11:38;;;;;;;16.00;14.20;;;9.50;99.90;;;;;;4938618;29;20467;-74
2021/05/28 03:14:06;;;;;;;18.90;15.40;;;9.50;99.90;;;;;;4918922;29;20512;-74
2021/05/28 03:16:34;;;;;;;17.13;15.37;;;9.50;99.90;;;;;;4938162;29;20456;-75
2021/05/28 03:19:06;;;;;;;16.97;14.17;;;9.50;99.90;;;;;;4935912;29;20479;-74
2021/05/28 03:22:30;;;;;;;18.80;16.80;;;9.50;99.90;;;;;;4937698;29;20468;-75
2021/05/28 03:24:25;;;;;;;18.07;16.17;;;9.50;99.90;;;;;;4936648;29;20475;-74
2021/05/28 03:26:52;;;;;;;16.70;15.00;;;9.50;99.90;;;;;;4936524;29;21033;-75
2021/05/28 03:29:20;;;;;;;19.30;16.77;;;9.50;99.90;;;;;;4937890;29;20510;-74
2021/05/28 03:31:48;;;;;;;19.40;16.47;;;9.50;99.90;;;;;;4937928;29;20484;-74
2021/05/28 03:34:17;;;;;;;17.70;15.80;;;9.50;99.90;;;;;;4937657;29;20539;-74
2021/05/28 03:36:45;;;;;;;20.23;16.33;;;9.50;99.90;;;;;;4935950;29;20460;-74
2021/05/28 03:39:12;;;;;;;19.77;17.67;;;9.50;99.90;;;;;;4937546;29;20432;-74
2021/05/28 03:41:40;;;;;;;21.60;18.10;;;9.50;99.90;;;;;;4937541;29;20475;-74
2021/05/28 03:44:08;;;;;;;24.10;18.25;;;9.50;99.90;;;;;;4937883;29;20447;-74
2021/05/28 03:46:35;;;;;;;19.87;16.13;;;9.50;99.90;;;;;;4936155;29;20243;-74
2021/05/28 03:49:03;;;;;;;18.93;16.90;;;9.50;99.90;;;;;;4936120;29;20539;-74
2021/05/28 03:51:32;;;;;;;17.97;16.07;;;9.60;99.90;;;;;;4937367;29;20821;-74
2021/05/28 03:54:00;;;;;;;17.53;15.70;;;9.60;99.90;;;;;;4936097;29;20467;-74
2021/05/28 03:56:27;;;;;;;17.40;15.53;;;9.60;99.90;;;;;;4935537;29;20486;-74
2021/05/28 03:58:55;;;;;;;22.40;17.17;;;9.60;99.90;;;;;;4936231;29;20546;-74
2021/05/28 04:01:23;;;;;;;17.73;15.37;;;9.60;99.90;;;;;;4937133;29;20440;-74
2021/05/28 04:03:50;;;;;;;16.23;14.63;;;9.60;99.90;;;;;;4937581;29;20452;-74
2021/05/28 04:06:18;;;;;;;17.33;14.50;;;9.60;99.90;;;;;;4937122;29;20440;-74
2021/05/28 04:08:46;;;;;;;16.83;15.00;;;9.60;99.90;;;;;;4935771;29;21068;-74
2021/05/28 04:11:14;;;;;;;14.77;13.23;;;9.70;99.90;;;;;;4937063;29;20499;-74
2021/05/28 04:13:42;;;;;;;18.83;14.30;;;9.70;99.90;;;;;;4935756;29;20443;-74
2021/05/28 04:16:09;;;;;;;15.90;14.00;;;9.70;99.90;;;;;;4935850;29;20458;-74
2021/05/28 04:18:38;;;;;;;19.03;15.47;;;9.70;99.90;;;;;;4936645;29;20448;-74
2021/05/28 04:21:06;;;;;;;19.30;14.80;;;9.70;99.90;;;;;;4936839;29;20528;-74
2021/05/28 04:23:34;;;;;;;16.10;14.60;;;9.80;99.90;;;;;;4936798;29;20440;-74
2021/05/28 04:26:02;;;;;;;16.67;14.20;;;9.80;99.90;;;;;;4937162;29;20480;-74
2021/05/28 04:28:30;;;;;;;15.80;14.17;;;9.80;99.90;;;;;;4936909;29;20486;-74
2021/05/28 04:30:58;;;;;;;17.40;13.27;;;9.80;99.90;;;;;;4935334;29;20924;-74
2021/05/28 04:33:26;;;;;;;15.40;13.80;;;9.80;99.90;;;;;;4936902;29;20454;-74
2021/05/28 04:35:54;;;;;;;17.00;14.13;;;9.90;99.90;;;;;;4936915;29;20527;-74
2021/05/28 04:38:22;;;;;;;16.30;13.70;;;9.90;99.90;;;;;;4937167;29;20448;-74
2021/05/28 04:40:51;;;;;;;17.27;12.30;;;9.90;99.90;;;;;;4935123;29;20476;-75
2021/05/28 04:43:20;;;;;;;16.17;13.80;;;9.90;99.90;;;;;;4935241;29;20452;-74
2021/05/28 04:45:48;;;;;;;15.73;12.43;;;10.00;99.90;;;;;;4936543;29;20452;-74
2021/05/28 04:48:15;;;;;;;16.33;12.73;;;10.00;99.90;;;;;;4935332;29;20460;-75
2021/05/28 04:50:43;;;;;;;18.47;14.30;;;10.00;99.90;;;;;;4936290;29;20498;-75
2021/05/28 04:53:11;;;;;;;12.77;11.47;;;10.00;99.90;;;;;;4935362;29;20538;-75
2021/05/28 04:55:38;;;;;;;13.70;12.40;;;10.00;99.90;;;;;;4936440;29;20444;-74
2021/05/28 04:58:06;;;;;;;12.27;10.77;;;10.10;99.90;;;;;;4934820;29;20456;-75
2021/05/28 05:00:34;;;;;;;15.37;12.10;;;10.10;99.90;;;;;;4936238;29;20455;-75
2021/05/28 05:03:03;;;;;;;11.40;10.20;;;10.10;99.90;;;;;;4934933;29;20544;-75
2021/05/28 05:05:31;;;;;;;13.03;11.70;;;10.10;99.90;;;;;;4937122;29;20455;-75
2021/05/28 05:08:06;;;;;;;14.17;11.43;;;10.10;99.90;;;;;;4937282;29;20451;-74
2021/05/28 05:10:34;;;;;;;12.63;10.73;;;10.10;99.90;;;;;;4934817;29;20901;-74
2021/05/28 05:13:09;;;;;;;13.67;10.60;;;10.10;99.90;;;;;;4936232;29;20797;-75
2021/05/28 05:15:37;;;;;;;9.83;8.83;;;10.10;99.90;;;;;;4934886;29;20869;-74
2021/05/28 05:18:06;;;;;;;12.03;10.83;;;10.10;99.90;;;;;;4936357;29;20435;-75
2021/05/28 05:20:34;;;;;;;10.10;9.10;;;10.10;99.90;;;;;;4936246;29;20460;-75
2021/05/28 05:23:02;;;;;;;9.37;8.47;;;10.10;99.90;;;;;;4934386;29;20551;-75
2021/05/28 05:25:30;;;;;;;9.97;8.97;;;10.20;99.90;;;;;;4934911;29;20452;-74
2021/05/28 05:27:58;;;;;;;10.43;9.43;;;10.20;99.90;;;;;;4935966;29;21021;-74
2021/05/28 05:30:26;;;;;;;9.97;8.97;;;10.20;99.90;;;;;;4933234;29;20511;-75
2021/05/28 05:32:54;;;;;;;10.60;9.47;;;10.30;99.90;;;;;;4934248;29;20538;-74
2021/05/28 05:35:22;;;;;;;10.47;9.37;;;10.30;99.90;;;;;;4935905;29;20869;-74
2021/05/28 05:37:49;;;;;;;11.37;10.17;;;10.30;99.90;;;;;;4935978;29;20462;-75
2021/05/28 05:40:17;;;;;;;11.30;10.17;;;10.30;99.90;;;;;;4935889;29;20660;-73
2021/05/28 05:42:45;;;;;;;13.40;10.53;;;10.30;99.90;;;;;;4937247;29;20495;-75
2021/05/28 05:45:14;;;;;;;11.90;10.70;;;10.30;99.90;;;;;;4938724;29;20981;-76
2021/05/28 05:47:43;;;;;;;12.10;10.87;;;10.30;99.90;;;;;;4938465;29;20991;-76
2021/05/28 05:50:15;;;;;;;13.37;11.97;;;10.30;99.90;;;;;;4938061;29;20578;-75
2021/05/28 05:52:43;;;;;;;12.60;11.30;;;10.30;99.90;;;;;;4938290;29;20456;-76
2021/05/28 05:55:12;;;;;;;14.63;12.37;;;10.30;99.90;;;;;;4939996;29;20459;-75
2021/05/28 05:57:39;;;;;;;13.80;12.50;;;10.30;99.90;;;;;;4938136;29;20477;-75
2021/05/28 06:00:08;;;;;;;12.80;11.53;;;10.30;99.90;;;;;;4938127;29;20527;-76
2021/05/28 06:02:37;;;;;;;13.60;12.20;;;10.30;99.90;;;;;;4938055;29;20447;-76
2021/05/28 06:05:07;;;;;;;13.53;12.13;;;10.30;99.90;;;;;;4937983;29;20550;-75
2021/05/28 06:07:35;;;;;;;14.00;12.23;;;10.30;99.90;;;;;;4939575;29;20806;-76
2021/05/28 06:10:04;;;;;;;13.03;11.73;;;10.30;99.90;;;;;;4938148;29;20482;-75
2021/05/28 06:12:31;;;;;;;13.33;11.10;;;10.30;99.90;;;;;;4937571;29;20455;-75
2021/05/28 06:14:59;;;;;;;14.43;12.97;;;10.30;99.90;;;;;;4938052;29;20844;-76
2021/05/28 06:17:27;;;;;;;12.37;10.70;;;10.40;99.90;;;;;;4937865;29;20459;-76
2021/05/28 06:19:54;;;;;;;12.17;10.80;;;10.40;99.90;;;;;;4937945;29;20562;-76
2021/05/28 06:22:27;;;;;;;11.30;10.17;;;10.40;99.90;;;;;;4939240;29;20459;-76
2021/05/28 06:24:56;;;;;;;10.70;9.70;;;10.40;99.90;;;;;;4937845;29;21021;-76
2021/05/28 06:27:23;;;;;;;11.80;9.17;;;10.40;99.90;;;;;;4937574;29;20452;-76
2021/05/28 06:29:51;;;;;;;11.13;8.83;;;10.50;99.90;;;;;;4938689;29;20554;-75
2021/05/28 06:32:18;;;;;;;9.73;8.67;;;10.50;99.90;;;;;;4937554;29;20551;-76
2021/05/28 06:34:46;;;;;;;10.53;9.10;;;10.50;99.90;;;;;;4937687;29;20483;-76
2021/05/28 06:37:14;;;;;;;10.30;8.10;;;10.50;99.90;;;;;;4937077;29;20490;-76
2021/05/28 06:39:41;;;;;;;11.37;7.27;;;10.60;99.90;;;;;;4937374;29;20480;-75
2021/05/28 06:42:10;;;;;;;9.47;6.93;;;10.60;99.90;;;;;;4937543;29;21033;-75
2021/05/28 06:44:38;;;;;;;8.60;7.70;;;10.60;99.90;;;;;;4938616;29;20490;-76
2021/05/28 06:47:05;;;;;;;9.80;7.67;;;10.70;99.90;;;;;;4938452;29;20445;-76
2021/05/28 06:49:33;;;;;;;7.97;7.03;;;10.70;99.90;;;;;;4938594;29;20933;-76
2021/05/28 06:52:01;;;;;;;8.33;6.63;;;10.70;99.90;;;;;;4937148;29;20475;-76
2021/05/28 06:54:33;;;;;;;8.50;7.00;;;10.80;99.90;;;;;;4936032;29;20459;-75
2021/05/28 06:57:01;;;;;;;9.70;7.30;;;10.80;99.90;;;;;;4938297;29;20452;-76
2021/05/28 06:59:30;;;;;;;11.60;7.37;;;10.80;99.90;;;;;;4938778;29;20527;-75
2021/05/28 07:01:58;;;;;;;8.13;7.33;;;10.80;99.90;;;;;;4937058;29;20548;-76
2021/05/28 07:04:26;;;;;;;10.70;8.00;;;10.90;99.90;;;;;;4937076;29;20456;-76
2021/05/28 07:06:53;;;;;;;11.33;7.20;;;11.00;99.90;;;;;;4938426;29;20452;-76
2021/05/28 07:09:21;;;;;;;7.53;6.43;;;11.00;99.90;;;;;;4936893;29;20562;-76
2021/05/28 07:11:49;;;;;;;7.67;6.97;;;11.10;99.90;;;;;;4938079;29;20502;-76
2021/05/28 07:14:16;;;;;;;6.50;5.90;;;11.20;99.90;;;;;;4936820;29;20459;-76
2021/05/28 07:16:45;;;;;;;6.63;5.93;;;11.20;99.90;;;;;;4936794;29;20455;-76
2021/05/28 07:19:12;;;;;;;9.13;6.17;;;11.30;99.90;;;;;;4937919;29;20558;-76
2021/05/28 07:21:40;;;;;;;8.93;7.43;;;11.30;99.90;;;;;;4936934;29;20640;-76
2021/05/28 07:24:08;;;;;;;8.40;6.13;;;11.40;99.90;;;;;;4936637;29;20551;-76
2021/05/28 07:26:36;;;;;;;8.00;5.83;;;11.30;99.90;;;;;;4937534;29;20480;-76
2021/05/28 07:29:04;;;;;;;8.37;7.10;;;11.40;99.90;;;;;;4936492;29;20491;-76
2021/05/28 07:31:33;;;;;;;7.47;6.10;;;11.40;99.90;;;;;;4937742;29;20478;-76
2021/05/28 07:34:02;;;;;;;9.20;5.50;;;11.40;99.90;;;;;;4938102;29;20499;-76
2021/05/28 07:36:29;;;;;;;8.60;6.13;;;11.40;99.90;;;;;;4936440;29;20467;-76
2021/05/28 07:38:57;;;;;;;7.27;5.87;;;11.50;99.90;;;;;;4937669;29;20886;-76
2021/05/28 07:41:25;;;;;;;7.80;7.00;;;11.50;99.90;;;;;;4937867;29;20447;-76
2021/05/28 07:43:52;;;;;;;10.20;5.77;;;11.60;99.90;;;;;;4936346;29;20459;-76
2021/05/28 07:46:20;;;;;;;7.30;6.20;;;11.60;99.90;;;;;;4936406;29;20553;-76
2021/05/28 07:48:47;;;;;;;8.83;6.60;;;11.60;99.90;;;;;;4937414;29;20454;-76
2021/05/28 07:51:16;;;;;;;9.07;6.70;;;11.70;99.90;;;;;;4937510;29;20561;-76
2021/05/28 07:53:44;;;;;;;9.90;6.63;;;11.70;99.90;;;;;;4936087;29;20460;-76
2021/05/28 07:56:12;;;;;;;6.83;6.10;;;11.70;99.90;;;;;;4937593;29;20539;-76
2021/05/28 07:58:40;;;;;;;6.73;5.70;;;11.80;99.90;;;;;;4936376;29;20484;-76
2021/05/28 08:01:08;;;;;;;7.43;5.73;;;11.90;99.90;;;;;;4935907;29;20512;-76
2021/05/28 08:03:35;;;;;;;8.18;6.03;;;11.90;99.90;;;;;;4935562;29;20897;-76
2021/05/28 08:06:03;;;;;;;8.73;6.20;;;12.00;99.90;;;;;;4935610;29;20287;-76
2021/05/28 08:08:31;;;;;;;7.80;6.50;;;12.10;99.90;;;;;;4935735;29;20555;-76
2021/05/28 08:10:59;;;;;;;9.53;7.30;;;12.20;99.90;;;;;;4935654;29;21025;-76
2021/05/28 08:13:27;;;;;;;7.70;6.25;;;12.30;99.90;;;;;;4937054;29;20939;-76
2021/05/28 08:15:56;;;;;;;7.97;6.10;;;12.40;99.90;;;;;;4938638;29;20200;-76
2021/05/28 08:18:26;;;;;;;6.80;6.10;;;12.40;99.90;;;;;;4935541;29;20459;-76
2021/05/28 08:20:54;;;;;;;8.50;5.70;;;12.50;99.90;;;;;;4935609;29;20471;-76
2021/05/28 08:23:22;;;;;;;11.03;6.63;;;12.70;99.90;;;;;;4936950;29;20542;-76
2021/05/28 08:25:51;;;;;;;8.53;7.10;;;12.80;99.90;;;;;;4935408;29;20546;-76
2021/05/28 08:28:19;;;;;;;9.53;5.40;;;13.00;99.90;;;;;;4936888;29;20539;-76
2021/05/28 08:30:47;;;;;;;8.03;6.70;;;13.10;99.90;;;;;;4935216;29;20574;-76
2021/05/28 08:33:15;;;;;;;10.77;7.53;;;13.20;99.90;;;;;;4936621;29;20503;-76
2021/05/28 08:35:44;;;;;;;5.27;4.50;;;13.30;99.90;;;;;;4936698;29;20452;-76
2021/05/28 08:38:12;;;;;;;9.23;5.20;;;13.40;99.90;;;;;;4935610;29;20973;-76
2021/05/28 08:40:39;;;;;;;7.30;4.80;;;13.50;99.90;;;;;;4935060;29;20575;-76
2021/05/28 08:43:08;;;;;;;6.70;5.90;;;13.70;99.90;;;;;;4935434;29;20458;-76
2021/05/28 08:45:38;;;;;;;7.57;4.97;;;13.80;99.90;;;;;;4934860;29;20460;-76
2021/05/28 08:48:09;;;;;;;6.00;5.23;;;13.90;99.90;;;;;;4935486;29;20466;-76
2021/05/28 08:50:37;;;;;;;5.13;4.63;;;14.00;99.90;;;;;;4936235;29;20438;-76
2021/05/28 08:53:07;;;;;;;8.63;5.20;;;14.10;99.90;;;;;;4935081;29;20551;-76
2021/05/28 08:55:37;;;;;;;9.23;5.47;;;14.30;99.90;;;;;;4934784;29;20660;-76
2021/05/28 08:58:06;;;;;;;8.67;5.20;;;14.50;99.90;;;;;;4936262;29;20511;-76
2021/05/28 09:00:35;;;;;;;7.03;4.60;;;14.70;99.90;;;;;;4934689;29;20587;-74
2021/05/28 09:03:21;;;;;;;6.70;4.73;;;14.80;99.90;;;;;;4936348;29;20461;-74
2021/05/28 09:05:55;;;;;;;5.77;4.50;;;15.10;99.90;;;;;;4936355;29;20447;-73
2021/05/28 09:08:27;;;;;;;7.20;5.43;;;15.20;99.90;;;;;;4935878;29;20479;-74
2021/05/28 09:11:05;;;;;;;7.70;4.90;;;15.40;99.90;;;;;;4934817;29;20865;-74
2021/05/28 09:13:34;;;;;;;6.67;5.20;;;15.60;99.90;;;;;;4934778;29;20480;-74
2021/05/28 09:16:09;;;;;;;7.77;6.17;;;15.70;99.90;;;;;;4934660;29;20430;-74
2021/05/28 09:18:45;;;;;;;5.50;4.90;;;15.90;99.90;;;;;;4934356;29;20434;-74
2021/05/28 09:21:19;;;;;;;10.87;4.90;;;16.00;99.90;;;;;;4936157;29;20525;-74
2021/05/28 09:23:46;;;;;;;5.23;4.40;;;16.10;99.90;;;;;;4934767;29;20559;-74
2021/05/28 09:26:14;;;;;;;5.60;4.80;;;16.30;99.90;;;;;;4934727;29;20482;-74
2021/05/28 09:28:44;;;;;;;7.20;4.90;;;16.30;99.90;;;;;;4934967;29;20451;-74
2021/05/28 09:31:15;;;;;;;5.60;4.20;;;16.40;99.90;;;;;;4934377;29;20578;-74
2021/05/28 09:33:45;;;;;;;6.17;4.80;;;16.60;99.90;;;;;;4936208;29;20477;-74
2021/05/28 09:36:17;;;;;;;5.82;4.20;;;16.70;99.90;;;;;;4935356;29;20448;-74
2021/05/28 09:39:04;;;;;;;6.27;4.83;;;16.80;99.90;;;;;;4934637;29;20208;-74
2021/05/28 09:41:41;;;;;;;4.50;4.10;;;16.90;99.90;;;;;;4928402;29;20444;-74
2021/05/28 09:44:12;;;;;;;6.93;4.13;;;17.00;99.90;;;;;;4936272;29;20455;-74
2021/05/28 09:47:01;;;;;;;7.17;4.13;;;17.10;99.90;;;;;;4936073;29;20462;-74
2021/05/28 09:49:30;;;;;;;6.27;4.87;;;17.10;99.90;;;;;;4936562;29;20464;-74
2021/05/28 09:52:11;;;;;;;5.57;4.40;;;17.20;99.90;;;;;;4934436;29;20530;-74
2021/05/28 09:54:39;;;;;;;4.63;3.77;;;17.30;99.90;;;;;;4934520;29;20440;-74
2021/05/28 09:57:27;;;;;;;3.87;3.47;;;17.40;99.90;;;;;;4934541;29;20563;-74
2021/05/28 09:59:55;;;;;;;5.50;3.93;;;17.50;99.90;;;;;;4936532;29;20490;-74
2021/05/28 10:02:28;;;;;;;4.83;3.60;;;17.50;99.90;;;;;;4933942;29;20484;-74
2021/05/28 10:04:58;;;;;;;3.77;3.10;;;17.50;99.90;;;;;;4934484;29;20833;-74
2021/05/28 10:07:27;;;;;;;3.40;3.00;;;17.60;99.90;;;;;;4935493;29;20795;-74
2021/05/28 10:09:56;;;;;;;5.10;2.97;;;17.70;99.90;;;;;;4934453;29;20496;-75
2021/05/28 10:12:24;;;;;;;4.17;3.30;;;17.90;99.90;;;;;;4934814;29;20498;-74
2021/05/28 10:14:53;;;;;;;3.80;3.40;;;18.00;99.90;;;;;;4934267;29;20595;-74
2021/05/28 10:17:21;;;;;;;4.30;3.73;;;18.20;99.90;;;;;;4934477;29;20550;-74
2021/05/28 10:19:51;;;;;;;4.60;3.40;;;18.30;99.90;;;;;;4934108;29;20472;-74
2021/05/28 10:22:21;;;;;;;4.40;3.80;;;18.30;99.90;;;;;;4935401;29;20985;-74
2021/05/28 10:24:49;;;;;;;6.17;3.70;;;18.40;99.90;;;;;;4936850;29;21024;-75
2021/05/28 10:27:21;;;;;;;6.93;4.27;;;18.30;99.90;;;;;;4935731;29;20451;-75
2021/05/28 10:29:50;;;;;;;4.20;3.60;;;18.40;99.90;;;;;;4936906;29;20555;-75
2021/05/28 10:32:18;;;;;;;2.87;2.47;;;18.40;99.90;;;;;;4937515;29;20471;-75
2021/05/28 10:35:11;;;;;;;4.10;2.70;;;18.50;99.90;;;;;;4938943;29;20787;-74
2021/05/28 10:37:41;;;;;;;3.43;2.77;;;18.50;99.90;;;;;;4937379;29;20452;-74
2021/05/28 10:40:28;;;;;;;3.60;3.20;;;18.40;99.90;;;;;;4936211;29;20532;-75
2021/05/28 10:42:58;;;;;;;6.00;3.27;;;18.60;99.90;;;;;;4938009;29;20298;-75
2021/05/28 10:45:58;;;;;;;3.30;2.40;;;18.60;99.90;;;;;;4940205;29;20456;-74
2021/05/28 10:48:59;;;;;;;3.97;2.90;;;18.70;99.90;;;;;;4937316;29;20448;-74
2021/05/28 10:52:01;;;;;;;5.80;3.50;;;18.80;99.90;;;;;;4932207;29;20473;-75
2021/05/28 10:54:35;;;;;;;4.00;2.60;;;19.00;99.90;;;;;;4937247;29;20223;-75
2021/05/28 10:57:35;;;;;;;6.20;3.33;;;19.00;99.90;;;;;;4938372;29;20455;-75
2021/05/28 11:00:08;;;;;;;5.90;3.00;;;19.10;99.90;;;;;;4936940;29;20551;-75
2021/05/28 11:03:01;;;;;;;3.77;3.37;;;19.10;99.90;;;;;;4936930;29;20464;-75
2021/05/28 11:05:43;;;;;;;4.27;2.80;;;19.20;99.90;;;;;;4936955;29;20540;-75
2021/05/28 11:08:52;;;;;;;4.23;3.10;;;19.30;99.90;;;;;;4936946;29;20463;-74
2021/05/28 11:11:55;;;;;;;3.77;3.07;;;19.40;99.90;;;;;;4931542;29;20554;-75
2021/05/28 11:14:24;;;;;;;2.53;2.33;;;19.50;99.90;;;;;;4933097;29;20471;-75
2021/05/28 11:17:17;;;;;;;5.03;2.77;;;19.70;99.90;;;;;;4936552;29;20451;-75
2021/05/28 11:19:56;;;;;;;3.10;2.50;;;19.70;99.20;;;;;;4936440;29;20527;-75
2021/05/28 11:22:30;;;;;;;11.33;3.53;;;19.80;99.10;;;;;;4937199;29;20515;-75
2021/05/28 11:25:01;;;;;;;3.30;2.30;;;19.70;98.90;;;;;;4937737;29;20961;-75
2021/05/28 11:27:40;;;;;;;2.60;2.40;;;19.70;98.80;;;;;;4936582;29;20511;-75
2021/05/28 11:30:40;;;;;;;5.37;2.27;;;19.70;98.70;;;;;;4936510;29;20566;-75
2021/05/28 11:33:09;;;;;;;3.00;2.03;;;19.80;98.20;;;;;;4934563;28;20558;-75
2021/05/28 11:35:41;;;;;;;3.93;1.80;;;19.80;98.50;;;;;;4937564;29;20534;-75
2021/05/28 11:38:11;;;;;;;2.67;2.47;;;19.80;98.20;;;;;;4939132;29;20462;-75
2021/05/28 11:40:41;;;;;;;2.50;2.20;;;19.80;98.20;;;;;;4935865;29;20565;-75
2021/05/28 11:43:11;;;;;;;3.60;2.40;;;19.80;97.50;;;;;;4936349;29;20444;-75
2021/05/28 11:45:41;;;;;;;4.88;3.08;;;19.80;98.00;;;;;;4935759;29;20512;-75
2021/05/28 11:48:14;;;;;;;2.53;2.33;;;19.90;97.50;;;;;;4936403;29;20539;-75
2021/05/28 11:50:46;;;;;;;3.83;2.30;;;19.90;97.30;;;;;;4936246;29;20611;-75
2021/05/28 11:53:14;;;;;;;3.17;2.27;;;19.80;97.40;;;;;;4937330;29;20468;-75
2021/05/28 11:55:45;;;;;;;2.50;2.23;;;19.80;97.40;;;;;;4937331;29;20483;-75
2021/05/28 11:58:14;;;;;;;3.00;2.13;;;19.80;97.30;;;;;;4937248;29;20476;-75
2021/05/28 12:00:42;;;;;;;3.97;2.60;;;19.70;97.00;;;;;;4935916;29;20579;-75
2021/05/28 12:03:11;;;;;;;4.20;2.50;;;19.60;97.00;;;;;;4937083;29;20440;-74
2021/05/28 12:05:41;;;;;;;2.60;2.27;;;19.40;96.90;;;;;;4935945;29;20571;-75
2021/05/28 12:08:20;;;;;;;3.00;2.67;;;19.30;96.90;;;;;;4935813;29;20539;-75
2021/05/28 12:10:50;;;;;;;8.07;3.53;;;19.20;96.90;;;;;;4935710;29;20487;-75
2021/05/28 12:13:19;;;;;;;5.90;2.90;;;19.20;97.00;;;;;;4937195;29;20475;-74
2021/05/28 12:15:49;;;;;;;3.10;2.50;;;19.20;97.20;;;;;;4935724;29;20452;-75
2021/05/28 12:18:20;;;;;;;4.27;2.60;;;19.20;97.20;;;;;;4935652;29;20515;-74
2021/05/28 12:20:50;;;;;;;3.70;3.30;;;19.30;97.20;;;;;;4937493;29;20558;-75
2021/05/28 12:23:20;;;;;;;4.53;2.23;;;19.30;97.00;;;;;;4935486;29;20550;-73
2021/05/28 12:25:54;;;;;;;4.67;2.33;;;19.40;96.80;;;;;;4936662;29;20488;-74
2021/05/28 12:28:27;;;;;;;2.63;2.30;;;19.40;96.50;;;;;;4936902;29;20467;-73
2021/05/28 12:31:00;;;;;;;4.70;3.27;;;19.50;96.50;;;;;;4936843;29;20496;-73
2021/05/28 12:33:32;;;;;;;3.27;2.30;;;19.50;96.00;;;;;;4936852;29;20466;-73
2021/05/28 12:36:01;;;;;;;3.90;3.10;;;19.40;96.00;;;;;;4937135;29;20511;-73
2021/05/28 12:38:35;;;;;;;5.10;2.90;;;19.50;95.80;;;;;;4928582;29;20475;-73
2021/05/28 12:41:04;;;;;;;3.70;2.80;;;19.50;95.60;;;;;;4936602;29;20466;-73
2021/05/28 12:43:33;;;;;;;3.50;2.80;;;19.50;95.80;;;;;;4935252;29;20542;-73
2021/05/28 12:46:01;;;;;;;4.13;3.13;;;19.40;95.70;;;;;;4935340;29;20516;-69
2021/05/28 12:48:44;;;;;;;3.33;2.97;;;19.40;95.80;;;;;;4934515;29;20453;-73
2021/05/28 12:51:13;;;;;;;5.93;3.43;;;19.50;95.50;;;;;;4934683;29;20335;-72
2021/05/28 12:53:42;;;;;;;3.20;2.90;;;19.50;95.50;;;;;;4936121;29;20478;-73
2021/05/28 12:56:10;;;;;;;2.60;2.10;;;19.50;95.40;;;;;;4936435;29;20457;-72
2021/05/28 12:58:43;;;;;;;2.10;1.90;;;19.50;95.40;;;;;;4936558;29;20440;-73